createdAt,value
2022-12-22T03:32:02.488Z,99867.87
2022-12-22T03:33:06.670Z,99869.66
2022-12-22T03:34:10.620Z,99872.11
2022-12-22T03:35:14.849Z,99865.16
2022-12-22T03:36:18.980Z,99864.86
2022-12-22T03:37:22.987Z,99864.71
2022-12-22T03:38:27.600Z,99861.30
2022-12-22T03:39:31.702Z,99866.40
2022-12-22T03:40:35.863Z,99865.38
2022-12-22T03:41:39.960Z,99861.59
2022-12-22T03:42:44.045Z,99856.31
2022-12-22T03:43:48.118Z,99851.92
2022-12-22T03:44:57.012Z,99845.69
2022-12-22T03:46:11.333Z,99856.16
2022-12-22T03:47:16.229Z,99852.76
2022-12-22T03:48:20.258Z,99856.05
2022-12-22T03:49:24.316Z,99856.16
2022-12-22T03:50:28.665Z,99856.16
2022-12-22T03:51:34.095Z,99854.45
2022-12-22T03:52:38.271Z,99853.60
2022-12-22T03:53:42.300Z,99863.05
2022-12-22T03:54:46.413Z,99852.49
2022-12-22T03:55:50.490Z,99852.49
2022-12-22T03:56:55.422Z,99855.87
2022-12-22T03:57:59.446Z,99853.23
2022-12-22T03:59:03.810Z,99853.23
2022-12-22T04:00:08.874Z,99846.27
2022-12-22T04:01:13.120Z,99844.58
2022-12-22T04:02:17.394Z,99852.49
2022-12-22T04:03:21.548Z,99852.49
2022-12-22T04:04:27.434Z,99855.28
2022-12-22T04:05:31.457Z,99851.73
2022-12-22T04:06:35.651Z,99846.34
2022-12-22T04:07:39.708Z,99840.98
2022-12-22T04:08:43.964Z,99840.98
2022-12-22T04:09:48.088Z,99841.17
2022-12-22T04:10:52.232Z,99832.41
2022-12-22T04:11:56.370Z,99837.69
2022-12-22T04:13:09.247Z,99829.86
2022-12-22T04:14:13.317Z,99830.81
2022-12-22T04:15:19.660Z,99823.81
2022-12-22T04:16:23.937Z,99827.48
2022-12-22T04:17:27.949Z,99739.97
2022-12-22T04:18:32.031Z,99824.00
2022-12-22T04:19:36.095Z,99824.00
2022-12-22T04:20:59.727Z,99820.44
2022-12-22T04:22:05.947Z,99815.32
2022-12-22T04:23:10.000Z,99817.95
2022-12-22T04:24:17.505Z,99809.31
2022-12-22T04:25:22.302Z,99803.27
2022-12-22T04:26:27.044Z,99811.27
2022-12-22T04:27:31.332Z,99811.27
2022-12-22T04:28:35.585Z,99818.14
2022-12-22T04:29:39.644Z,99818.14
2022-12-22T04:30:43.822Z,99820.78
2022-12-22T04:31:48.128Z,99820.89
2022-12-22T04:32:52.355Z,99816.53
2022-12-22T04:33:56.541Z,99820.02
2022-12-22T04:35:00.657Z,99822.66
2022-12-22T04:36:05.283Z,99816.53
2022-12-22T04:37:16.684Z,99815.69
2022-12-22T04:38:15.075Z,99824.56
2022-12-22T04:39:19.233Z,99821.92
2022-12-22T04:40:23.288Z,99825.30
2022-12-22T04:41:27.530Z,99827.09
2022-12-22T04:42:31.682Z,99822.66
2022-12-22T04:43:36.450Z,99829.65
2022-12-22T04:44:40.516Z,99821.73
2022-12-22T04:45:45.081Z,99822.50
2022-12-22T04:46:49.047Z,99824.38
2022-12-22T04:47:53.005Z,99824.38
2022-12-22T04:49:00.308Z,99826.83
2022-12-22T04:50:02.676Z,99826.83
2022-12-22T04:51:06.830Z,99823.23
2022-12-22T04:52:10.889Z,99821.55
2022-12-22T04:53:14.843Z,99824.19
2022-12-22T04:54:20.963Z,99824.95
2022-12-22T04:55:24.643Z,99834.55
2022-12-22T04:56:28.770Z,99832.02
2022-12-22T04:57:36.990Z,99828.44
2022-12-22T04:58:40.561Z,99837.19
2022-12-22T04:59:44.601Z,99835.39
2022-12-22T05:00:48.784Z,99833.63
2022-12-22T05:01:53.068Z,99831.34
2022-12-22T05:02:57.267Z,99822.50
2022-12-22T05:04:12.071Z,99822.50
2022-12-22T05:05:16.275Z,99824.19
2022-12-22T05:06:27.435Z,99824.19
2022-12-22T05:09:06.484Z,99821.36
2022-12-22T05:10:12.923Z,99824.11
2022-12-22T05:11:24.031Z,99824.19
2022-12-22T05:12:35.343Z,99824.19
2022-12-22T05:13:49.282Z,99824.11
2022-12-22T05:14:53.831Z,99814.29
2022-12-22T05:16:06.503Z,99810.73
2022-12-22T05:17:21.028Z,99823.08
2022-12-22T05:18:19.718Z,99824.00
2022-12-22T05:19:29.098Z,99824.00
2022-12-22T05:20:30.166Z,99821.09
2022-12-22T05:21:34.311Z,99825.42
2022-12-22T05:22:46.294Z,99816.48
2022-12-22T05:24:08.340Z,99821.67
2022-12-22T05:25:18.453Z,99826.00
2022-12-22T05:28:18.025Z,99829.59
2022-12-22T05:29:16.516Z,99833.08
2022-12-22T05:30:31.377Z,99826.19
2022-12-22T05:31:35.299Z,99644.33
2022-12-22T05:33:07.042Z,99832.30
2022-12-22T05:33:53.492Z,99827.80
2022-12-22T05:35:00.262Z,99833.84
2022-12-22T05:36:04.837Z,99833.84
2022-12-22T05:37:08.928Z,99836.37
2022-12-22T05:38:12.956Z,99830.90
2022-12-22T05:39:16.947Z,99841.37
2022-12-22T05:40:21.044Z,99843.83
2022-12-22T05:41:28.157Z,99845.52
2022-12-22T05:42:32.236Z,99847.42
2022-12-22T05:43:37.016Z,99839.58
2022-12-22T05:44:41.083Z,99831.93
2022-12-22T05:45:46.301Z,99845.70
2022-12-22T05:46:53.462Z,99840.23
2022-12-22T05:47:57.563Z,99851.67
2022-12-22T05:49:01.724Z,99850.80
2022-12-22T05:50:08.009Z,99847.23
2022-12-22T05:51:12.130Z,99855.23
2022-12-22T05:52:16.056Z,99854.20
2022-12-22T05:53:22.943Z,99861.08
2022-12-22T05:54:28.668Z,99857.52
2022-12-22T05:55:34.985Z,99859.97
2022-12-22T05:56:39.092Z,99864.30
2022-12-22T05:57:43.785Z,99850.06
2022-12-22T05:58:47.846Z,99856.30
2022-12-22T05:59:51.816Z,99845.73
2022-12-22T06:01:00.215Z,99843.95
2022-12-22T06:02:04.517Z,99851.02
2022-12-22T06:03:08.810Z,99852.70
2022-12-22T06:04:13.135Z,99857.98
2022-12-22T12:09:16.534Z,99797.89
2022-12-22T12:10:31.949Z,99797.89
2022-12-22T12:12:06.262Z,99791.85
2022-12-22T12:13:37.780Z,99804.88
2022-12-22T12:15:10.373Z,99802.36
2022-12-22T12:16:33.345Z,99808.50
2022-12-22T18:19:55.554Z,99811.28
2022-12-22T18:21:06.140Z,99805.56
2022-12-22T18:22:05.725Z,99803.25
2022-12-22T18:23:24.176Z,99804.00
2022-12-22T18:24:28.358Z,99804.72
2022-12-22T18:25:34.184Z,99796.59
2022-12-22T18:26:38.256Z,99802.83
2022-12-22T18:29:18.941Z,99794.14
2022-12-22T18:30:26.103Z,99791.70
2022-12-22T18:31:32.037Z,99791.70
2022-12-22T18:32:37.905Z,99786.73
2022-12-22T18:33:42.250Z,99790.22
2022-12-22T18:34:48.526Z,99786.52
2022-12-22T18:35:59.295Z,99743.88
2022-12-22T18:37:57.635Z,99743.88
2022-12-22T18:38:39.450Z,99786.52
2022-12-22T18:39:45.087Z,99787.17
2022-12-22T18:40:49.138Z,99778.19
2022-12-22T18:41:55.692Z,99779.11
2022-12-22T18:43:06.246Z,99785.16
2022-12-22T18:44:10.114Z,99785.16
2022-12-22T18:45:18.817Z,99780.61
2022-12-22T18:46:24.295Z,99780.61
2022-12-22T18:47:28.597Z,99780.61
2022-12-22T18:48:32.880Z,99780.30
2022-12-22T18:49:40.599Z,99780.19
2022-12-22T18:50:48.946Z,99777.53
2022-12-22T18:52:00.147Z,99784.52
2022-12-22T18:53:30.623Z,99784.42
2022-12-22T18:54:38.055Z,99779.97
2022-12-22T18:55:42.655Z,99788.66
2022-12-22T18:56:48.446Z,99784.33
2022-12-22T18:57:54.826Z,99785.27
2022-12-22T18:58:59.304Z,99788.66
2022-12-22T19:00:09.784Z,99788.56
2022-12-22T19:01:22.212Z,99785.05
2022-12-22T19:02:30.895Z,99783.14
2022-12-22T19:03:38.358Z,99783.98
2022-12-22T19:04:42.537Z,99778.69
2022-12-22T19:05:47.594Z,99772.55
2022-12-22T19:06:51.778Z,99780.41
2022-12-22T19:07:56.679Z,99770.66
2022-12-22T19:09:00.921Z,99774.23
2022-12-22T19:10:05.495Z,99767.26
2022-12-22T19:11:11.861Z,99776.17
2022-12-22T19:12:20.973Z,99772.77
2022-12-22T19:13:36.986Z,99775.33
2022-12-22T19:14:43.391Z,99768.23
2022-12-22T19:15:47.699Z,99776.17
2022-12-22T19:16:51.890Z,99775.42
2022-12-22T19:18:03.155Z,99777.97
2022-12-22T19:19:19.606Z,99771.80
2022-12-22T19:20:25.510Z,99773.61
2022-12-22T19:21:29.592Z,99773.61
2022-12-22T19:22:33.731Z,99775.42
2022-12-22T19:23:37.905Z,99773.73
2022-12-22T19:24:45.493Z,99776.27
2022-12-22T19:25:52.576Z,99775.42
2022-12-22T19:26:56.887Z,99779.87
2022-12-22T19:28:11.204Z,99775.52
2022-12-22T19:29:15.579Z,99778.16
2022-12-22T19:30:22.528Z,99778.16
2022-12-22T19:31:29.645Z,99765.80
2022-12-22T19:32:40.100Z,99761.34
2022-12-22T19:33:45.144Z,99763.86
2022-12-22T19:34:49.261Z,99765.58
2022-12-22T19:35:53.894Z,99761.97
2022-12-22T19:36:58.085Z,99768.94
2022-12-22T19:38:02.243Z,99763.86
2022-12-22T19:39:06.441Z,99761.22
2022-12-22T19:40:12.238Z,99767.48
2022-12-22T19:41:25.369Z,99770.88
2022-12-22T19:42:29.815Z,99767.26
2022-12-22T19:43:34.147Z,99767.38
2022-12-22T19:44:44.488Z,99767.26
2022-12-22T19:46:02.453Z,99757.51
2022-12-22T19:47:09.506Z,99760.28
2022-12-22T19:48:16.810Z,99752.34
2022-12-22T19:49:23.609Z,99750.63
2022-12-22T19:50:39.915Z,99750.63
2022-12-22T19:51:56.057Z,99748.84
2022-12-22T19:53:02.026Z,99754.98
2022-12-22T19:54:07.850Z,99754.98
2022-12-22T19:55:12.613Z,99749.78
2022-12-22T19:56:29.865Z,99758.56
2022-12-22T19:57:37.343Z,99755.92
2022-12-22T19:58:42.003Z,99757.73
2022-12-22T19:59:49.315Z,99757.63
2022-12-22T20:00:55.991Z,99756.67
2022-12-22T20:02:07.580Z,99752.21
2022-12-22T20:03:13.587Z,99750.41
2022-12-22T20:04:17.872Z,99754.98
2022-12-22T20:05:38.564Z,99754.98
2022-12-22T20:06:43.773Z,99755.61
2022-12-22T20:07:48.394Z,99757.20
2022-12-22T20:08:54.164Z,99754.55
2022-12-22T20:10:15.281Z,99754.55
2022-12-22T20:11:22.248Z,99757.29
2022-12-22T20:12:32.519Z,99751.80
2022-12-22T20:13:38.213Z,99757.10
2022-12-22T20:14:42.511Z,99754.64
2022-12-22T20:15:46.794Z,99754.64
2022-12-22T20:16:52.791Z,99751.99
2022-12-22T20:17:58.425Z,99753.70
2022-12-22T20:19:13.128Z,99744.92
2022-12-22T20:20:27.466Z,99745.86
2022-12-22T20:21:32.132Z,99748.41
2022-12-22T20:22:36.324Z,99744.27
2022-12-22T20:23:55.175Z,99750.41
2022-12-22T20:25:00.332Z,99756.67
2022-12-22T20:26:10.481Z,99747.76
2022-12-22T20:27:26.495Z,99747.97
2022-12-22T20:28:40.559Z,99746.20
2022-12-22T20:29:42.286Z,99742.47
2022-12-22T20:30:47.611Z,99748.63
2022-12-22T20:31:52.170Z,99745.23
2022-12-22T20:32:56.575Z,99742.59
2022-12-22T20:34:00.661Z,99740.78
2022-12-22T20:35:04.931Z,99740.78
2022-12-22T20:37:37.546Z,99730.31
2022-12-22T20:38:42.964Z,99733.89
2022-12-22T20:39:47.116Z,99729.22
2022-12-22T20:40:52.805Z,99730.19
2022-12-22T20:41:56.972Z,99726.58
2022-12-22T20:43:01.095Z,99726.58
2022-12-22T20:44:17.514Z,99738.13
2022-12-22T20:46:45.528Z,99730.19
2022-12-22T20:47:58.978Z,99730.19
2022-12-22T20:49:07.936Z,99730.19
2022-12-22T20:50:20.706Z,99724.27
2022-12-22T20:51:27.934Z,99724.15
2022-12-22T20:52:32.002Z,99730.41
2022-12-22T20:53:37.979Z,99724.27
2022-12-22T20:54:44.359Z,99725.33
2022-12-22T20:55:52.727Z,99726.17
2022-12-22T20:56:59.846Z,99725.55
2022-12-22T20:58:05.272Z,99729.79
2022-12-22T20:59:15.243Z,99729.88
2022-12-22T21:00:28.574Z,99729.88
2022-12-22T21:01:37.568Z,99720.48
2022-12-22T21:02:45.304Z,99717.83
2022-12-22T21:03:50.098Z,99720.48
2022-12-22T21:04:57.687Z,99715.19
2022-12-22T21:06:01.848Z,99717.92
2022-12-22T21:07:05.974Z,99710.08
2022-12-22T21:08:20.003Z,99711.78
2022-12-22T21:09:23.960Z,99710.95
2022-12-22T21:10:34.723Z,99715.37
2022-12-22T21:11:42.719Z,99712.84
2022-12-22T21:12:55.947Z,99711.05
2022-12-22T21:14:00.318Z,99709.23
2022-12-22T21:15:04.977Z,99718.77
2022-12-22T21:16:28.027Z,99715.37
2022-12-22T21:17:32.398Z,99629.66
2022-12-22T21:18:36.537Z,99711.13
2022-12-22T21:19:40.829Z,99711.13
2022-12-22T21:20:46.287Z,99712.84
2022-12-22T21:21:52.084Z,99703.31
2022-12-22T21:22:57.799Z,99710.30
2022-12-22T21:24:05.029Z,99711.35
2022-12-22T21:25:14.286Z,99711.26
2022-12-22T21:26:33.600Z,99708.70
2022-12-22T21:27:38.848Z,99706.93
2022-12-22T21:28:46.207Z,99708.61
2022-12-22T21:29:50.419Z,99705.97
2022-12-22T21:30:54.585Z,99706.06
2022-12-22T21:31:58.673Z,99701.52
2022-12-22T21:33:04.407Z,99705.00
2022-12-22T21:34:10.788Z,99697.80
2022-12-22T21:35:18.032Z,99696.13
2022-12-22T21:36:27.927Z,99703.31
2022-12-22T21:37:32.084Z,99698.02
2022-12-22T21:38:36.851Z,99698.02
2022-12-22T21:39:42.664Z,99699.17
2022-12-22T21:40:46.931Z,99701.82
2022-12-22T21:41:51.366Z,99706.19
2022-12-22T21:42:56.405Z,99706.93
2022-12-22T21:44:02.237Z,99699.92
2022-12-22T21:45:11.088Z,99661.94
2022-12-22T21:46:15.350Z,99704.47
2022-12-22T21:47:21.254Z,99704.47
2022-12-22T21:48:25.374Z,99698.46
2022-12-22T21:49:31.600Z,99698.46
2022-12-22T21:50:36.362Z,99697.59
2022-12-22T21:51:40.625Z,99697.72
2022-12-22T21:52:46.120Z,99699.52
2022-12-22T21:53:50.336Z,99693.58
2022-12-22T21:54:54.319Z,99701.52
2022-12-22T21:55:58.637Z,99705.13
2022-12-22T21:57:04.307Z,99708.83
2022-12-22T21:58:12.531Z,99700.14
2022-12-22T21:59:16.946Z,99701.20
2022-12-22T22:00:22.499Z,99704.59
2022-12-22T22:01:28.046Z,99707.02
2022-12-22T22:02:32.339Z,99704.59
2022-12-22T22:03:36.401Z,99707.14
2022-12-22T22:04:40.474Z,99704.37
2022-12-22T22:05:44.621Z,99700.80
2022-12-22T22:06:48.873Z,99710.41
2022-12-22T22:07:54.962Z,99710.50
2022-12-22T22:08:59.067Z,99705.34
2022-12-22T22:10:03.303Z,99705.34
2022-12-22T22:11:18.743Z,99694.22
2022-12-22T22:12:28.142Z,99695.81
2022-12-22T22:13:28.731Z,99699.42
2022-12-22T22:14:34.128Z,99698.45
2022-12-22T22:15:38.186Z,99702.91
2022-12-22T22:16:44.123Z,99702.91
2022-12-22T22:17:52.152Z,99704.59
2022-12-22T22:18:55.923Z,99697.40
2022-12-22T22:20:00.190Z,99697.40
2022-12-22T22:21:05.685Z,99697.40
2022-12-22T22:22:09.693Z,99698.33
2022-12-22T22:23:15.834Z,99687.97
2022-12-22T22:24:20.701Z,99686.81
2022-12-22T22:25:25.252Z,99689.34
2022-12-22T22:26:29.194Z,99693.58
2022-12-22T22:27:33.205Z,99683.95
2022-12-22T22:28:37.825Z,99683.95
2022-12-22T22:29:43.358Z,99674.33
2022-12-22T22:30:47.480Z,99674.33
2022-12-22T22:31:53.328Z,99674.33
2022-12-22T22:32:57.748Z,99675.17
2022-12-22T22:34:03.085Z,99674.11
2022-12-22T22:35:07.425Z,99670.72
2022-12-22T22:36:11.637Z,99676.98
2022-12-22T22:37:16.763Z,99676.98
2022-12-22T22:38:21.696Z,99679.81
2022-12-22T22:39:27.337Z,99672.75
2022-12-22T22:40:32.559Z,99672.75
2022-12-22T22:41:42.946Z,99675.39
2022-12-22T22:42:42.556Z,99673.46
2022-12-22T22:43:48.171Z,99673.46
2022-12-22T22:44:52.399Z,99674.33
2022-12-22T22:45:56.786Z,99672.63
2022-12-22T22:47:00.951Z,99669.04
2022-12-22T22:48:11.085Z,99662.78
2022-12-22T22:49:14.974Z,99673.46
2022-12-22T22:50:20.593Z,99672.63
2022-12-22T22:51:24.959Z,99666.48
2022-12-22T22:52:29.039Z,99658.64
2022-12-22T22:53:36.286Z,99654.22
2022-12-22T22:54:40.285Z,99658.64
2022-12-22T22:55:45.831Z,99649.02
2022-12-22T22:56:49.957Z,99649.02
2022-12-22T22:57:54.318Z,99653.26
2022-12-22T22:59:02.365Z,99650.83
2022-12-22T23:00:10.732Z,99644.48
2022-12-22T23:01:14.933Z,99648.92
2022-12-22T23:02:19.218Z,99650.70
2022-12-22T23:03:23.733Z,99653.16
2022-12-22T23:04:29.946Z,99647.12
2022-12-22T23:05:34.032Z,99648.05
2022-12-22T23:06:38.073Z,99645.41
2022-12-22T23:07:42.226Z,99645.31
2022-12-22T23:08:50.940Z,99645.53
2022-12-22T23:09:55.062Z,99651.58
2022-12-22T23:10:59.635Z,99649.86
2022-12-22T23:12:03.934Z,99649.86
2022-12-22T23:13:08.057Z,99648.05
2022-12-22T23:14:12.212Z,99654.44
2022-12-22T23:15:16.356Z,99649.86
2022-12-22T23:16:20.918Z,99644.57
2022-12-22T23:17:25.097Z,99634.95
2022-12-22T23:18:30.677Z,99634.95
2022-12-22T23:19:34.830Z,99640.98
2022-12-22T23:20:40.429Z,99640.98
2022-12-22T23:21:44.858Z,99640.98
2022-12-22T23:22:48.879Z,99631.12
2022-12-22T23:23:57.817Z,99630.28
2022-12-22T23:25:01.877Z,99619.70
2022-12-22T23:26:06.362Z,99620.66
2022-12-22T23:27:10.315Z,99627.86
2022-12-22T23:28:14.535Z,99626.17
2022-12-22T23:29:18.731Z,99623.53
2022-12-22T23:30:22.892Z,99618.23
2022-12-22T23:31:26.954Z,99619.17
2022-12-22T23:32:31.094Z,99619.17
2022-12-22T23:33:35.122Z,99628.17
2022-12-22T23:34:39.169Z,99632.63
2022-12-22T23:35:45.270Z,99632.63
2022-12-22T23:36:49.387Z,99632.63
2022-12-22T23:37:53.427Z,99630.19
2022-12-22T23:38:58.008Z,99631.16
2022-12-22T23:40:25.623Z,99625.87
2022-12-22T23:41:10.856Z,99622.47
2022-12-22T23:42:14.906Z,99626.09
2022-12-22T23:43:18.980Z,99626.09
2022-12-22T23:44:23.403Z,99631.56
2022-12-22T23:45:31.843Z,99628.20
2022-12-22T23:46:35.983Z,99625.77
2022-12-22T23:47:41.008Z,99625.77
2022-12-22T23:48:46.569Z,99635.39
2022-12-22T23:49:50.643Z,99637.29
2022-12-22T23:50:54.808Z,99642.70
2022-12-22T23:51:58.916Z,99642.70
2022-12-22T23:53:03.324Z,99639.19
2022-12-22T23:54:07.459Z,99639.52
2022-12-22T23:55:11.550Z,99646.41
2022-12-22T23:56:16.062Z,99635.17
2022-12-22T23:57:20.085Z,99630.00
2022-12-22T23:58:24.986Z,99632.65
2022-12-22T23:59:30.483Z,99627.36
